createdAt,value
2022-11-08T00:01:37.428Z,10.91
2022-11-08T00:26:19.527Z,10.74
2022-11-08T00:33:53.486Z,10.70
2022-11-08T00:41:28.615Z,10.64
2022-11-08T00:49:02.531Z,10.59
2022-11-08T00:56:37.720Z,10.54
2022-11-08T01:04:12.569Z,10.50
2022-11-08T01:11:47.995Z,10.46
2022-11-08T01:19:21.905Z,10.43
2022-11-08T01:26:57.645Z,10.38
2022-11-08T01:34:31.567Z,10.35
2022-11-08T01:42:06.989Z,10.30
2022-11-08T01:49:45.379Z,10.27
2022-11-08T01:57:24.530Z,10.26
2022-11-08T02:04:59.588Z,10.25
2022-11-08T02:12:34.759Z,10.21
2022-11-08T02:20:09.311Z,10.18
2022-11-08T02:27:45.531Z,10.15
2022-11-08T02:35:21.744Z,10.09
2022-11-08T02:42:57.041Z,10.04
2022-11-08T02:50:30.778Z,10.00
2022-11-08T02:58:05.821Z,9.98
2022-11-08T03:05:39.511Z,9.92
2022-11-08T03:13:14.894Z,9.92
2022-11-08T03:20:48.569Z,9.91
2022-11-08T03:28:24.383Z,9.90
2022-11-08T03:35:58.478Z,9.90
2022-11-08T03:43:33.604Z,9.87
2022-11-08T03:51:07.318Z,9.78
2022-11-08T03:58:42.642Z,9.68
2022-11-08T04:06:16.265Z,9.59
2022-11-08T04:14:09.176Z,9.50
2022-11-08T04:21:44.592Z,9.38
2022-11-08T04:29:19.649Z,9.28
2022-11-08T04:36:53.295Z,9.21
2022-11-08T04:44:28.507Z,9.15
2022-11-08T04:52:02.224Z,9.08
2022-11-08T04:59:37.293Z,9.00
2022-11-08T05:07:10.959Z,8.92
2022-11-08T05:14:46.071Z,8.82
2022-11-08T05:22:37.361Z,8.75
2022-11-08T05:30:13.111Z,8.68
2022-11-08T05:37:46.767Z,8.65
2022-11-08T05:45:22.167Z,8.61
2022-11-08T05:52:55.912Z,8.56
2022-11-08T06:00:30.914Z,8.49
2022-11-08T06:08:05.053Z,8.46
2022-11-08T06:15:40.187Z,8.47
2022-11-08T06:23:14.173Z,8.47
2022-11-08T06:30:50.376Z,8.40
2022-11-08T06:38:24.463Z,8.41
2022-11-08T06:46:03.369Z,8.38
2022-11-08T06:53:37.026Z,8.37
2022-11-08T07:01:13.422Z,8.36
2022-11-08T07:08:47.195Z,8.70
2022-11-08T07:16:22.287Z,8.79
2022-11-08T07:23:56.144Z,8.78
2022-11-08T07:31:31.557Z,8.92
2022-11-08T07:39:06.774Z,9.11
2022-11-08T07:46:42.381Z,9.43
2022-11-08T07:54:16.276Z,9.66
2022-11-08T08:01:51.406Z,9.86
2022-11-08T08:09:25.595Z,10.24
2022-11-08T08:17:00.560Z,10.66
2022-11-08T08:24:34.050Z,11.14
2022-11-08T08:32:09.961Z,11.47
2022-11-08T08:39:43.602Z,11.98
2022-11-08T08:47:18.735Z,12.23
2022-11-08T08:54:52.437Z,12.18
2022-11-08T09:02:27.577Z,12.27
2022-11-08T09:10:01.762Z,12.49
2022-11-08T09:17:37.062Z,12.61
2022-11-08T09:25:11.215Z,12.46
2022-11-08T09:33:00.418Z,12.54
2022-11-08T09:40:43.110Z,12.51
2022-11-08T09:48:26.035Z,12.53
2022-11-08T09:56:03.366Z,12.67
2022-11-08T10:03:38.995Z,12.82
2022-11-08T10:11:23.681Z,12.97
2022-11-08T10:19:16.653Z,13.08
2022-11-08T10:26:53.274Z,13.24
2022-11-08T10:34:35.285Z,13.59
2022-11-08T10:42:15.709Z,13.70
2022-11-08T10:49:50.914Z,13.68
2022-11-08T10:57:26.588Z,13.71
2022-11-08T11:05:24.571Z,13.81
2022-11-08T11:13:03.977Z,13.84
2022-11-08T11:20:39.331Z,14.02
2022-11-08T11:28:15.321Z,14.21
2022-11-08T11:35:54.235Z,14.42
2022-11-08T11:43:35.062Z,14.39
2022-11-08T11:51:11.813Z,14.61
2022-11-08T11:59:13.500Z,14.75
2022-11-08T12:07:00.773Z,14.93
2022-11-08T12:14:49.430Z,15.01
2022-11-08T12:22:46.562Z,15.17
2022-11-08T12:30:22.647Z,15.23
2022-11-08T12:38:17.358Z,15.17
2022-11-08T12:46:08.823Z,15.26
2022-11-08T12:54:07.250Z,15.23
2022-11-08T13:01:41.898Z,15.28
2022-11-08T13:09:25.128Z,15.32
2022-11-08T13:17:25.560Z,15.20
2022-11-08T13:25:02.842Z,15.20
2022-11-08T13:32:53.687Z,15.25
2022-11-08T13:40:45.076Z,15.19
2022-11-08T13:48:37.223Z,15.18
2022-11-08T13:56:46.903Z,15.22
2022-11-08T14:04:28.230Z,15.20
2022-11-08T14:12:10.871Z,15.13
2022-11-08T14:19:46.850Z,15.13
2022-11-08T14:27:36.059Z,15.07
2022-11-08T14:35:15.904Z,15.00
2022-11-08T14:42:52.189Z,14.90
2022-11-08T14:50:31.987Z,14.84
2022-11-08T14:58:15.228Z,14.71
2022-11-08T15:05:56.079Z,14.62
2022-11-08T15:13:35.319Z,14.53
2022-11-08T15:21:23.861Z,14.38
2022-11-08T15:29:19.856Z,14.28
2022-11-08T15:36:54.609Z,14.17
2022-11-08T15:44:30.805Z,14.06
2022-11-08T15:52:05.575Z,13.94
2022-11-08T15:59:40.662Z,13.84
2022-11-08T16:07:14.250Z,13.74
2022-11-08T16:14:51.242Z,13.60
2022-11-08T16:22:24.928Z,13.52
2022-11-08T16:30:00.320Z,13.50
2022-11-08T16:37:34.152Z,13.43
2022-11-08T16:45:11.462Z,13.39
2022-11-08T16:52:45.820Z,13.33
2022-11-08T17:00:21.998Z,13.29
2022-11-08T17:07:56.002Z,13.20
2022-11-08T17:15:31.413Z,13.18
2022-11-08T17:23:05.185Z,13.26
2022-11-08T17:30:44.491Z,13.24
2022-11-08T17:38:18.434Z,13.29
2022-11-08T17:45:54.203Z,13.25
2022-11-08T17:53:28.042Z,13.27
2022-11-08T18:01:04.994Z,13.20
2022-11-08T18:08:39.220Z,13.11
2022-11-08T18:16:17.354Z,13.05
2022-11-08T18:23:51.372Z,12.96
2022-11-08T18:31:27.293Z,12.87
2022-11-08T18:39:02.759Z,12.81
2022-11-08T18:46:42.907Z,12.73
2022-11-08T18:54:17.032Z,12.65
2022-11-08T19:01:52.181Z,12.60
2022-11-08T19:09:25.897Z,12.56
2022-11-08T19:17:00.972Z,12.52
2022-11-08T19:24:34.499Z,12.50
2022-11-08T19:32:09.490Z,12.49
2022-11-08T19:39:43.264Z,12.42
2022-11-08T19:47:18.433Z,12.38
2022-11-08T19:54:52.094Z,12.32
2022-11-08T20:02:27.597Z,12.28
2022-11-08T20:10:01.299Z,12.33
2022-11-08T20:17:36.709Z,12.37
2022-11-08T20:25:10.864Z,12.40
2022-11-08T20:32:45.901Z,12.42
2022-11-08T20:40:19.498Z,12.47
2022-11-08T20:47:54.567Z,12.42
2022-11-08T20:55:29.532Z,12.36
2022-11-08T21:03:04.919Z,12.32
2022-11-08T21:10:43.595Z,12.27
2022-11-08T21:18:20.681Z,12.26
2022-11-08T21:25:54.457Z,12.26
2022-11-08T21:33:29.573Z,12.22
2022-11-08T21:41:05.548Z,12.15
2022-11-08T21:48:40.446Z,12.12
2022-11-08T21:56:14.902Z,12.08
2022-11-08T22:03:50.354Z,12.03
2022-11-08T22:11:24.534Z,12.01
2022-11-08T22:19:07.205Z,11.98
2022-11-08T22:26:42.391Z,11.93
2022-11-08T22:34:17.494Z,11.90
2022-11-08T22:41:52.243Z,11.86
2022-11-08T22:49:27.319Z,11.86
2022-11-08T22:57:00.998Z,11.82
2022-11-08T23:04:36.033Z,11.78
2022-11-08T23:12:27.145Z,11.75
2022-11-08T23:20:19.580Z,11.70
2022-11-08T23:28:10.710Z,11.68
2022-11-08T23:35:59.872Z,11.62
2022-11-08T23:43:51.341Z,11.57
2022-11-08T23:51:26.447Z,11.51
2022-11-08T23:59:00.927Z,11.47
